Alta, Illinois
Current Conditions -  °F | °C
As of 9:24 PM on Sunday 21 Dec 2014 (Local Time) from KPIA Reporting Station
Light Rain Light Rain  
Wind Chill: 30°   Ceiling: 2600
Heat Index: 38°   Visibility: 7mi
Dew Point: 29°   Wind: 12mph
Humidity: 70%   Direction: 150°SSE
Pressure: 29.99"   Gusts: NA
Location:  40.7792°N, 89.6377°W
Report Text: KPIA 220324Z 15010KT 7SM -RA OVC026 03/M02 A2999 RMK AO2 RAB24SNB14E24 P0000 T00331017
Loading
Personal Weather Stations






























Interactive Weather Map New forecast layout! Learn more

10-Day Weather Forecast

Advertisements
Track Severe Weather on mobile